Time;durP1;ratioP1;P1;durP2;ratioP2;P2;SDS_P1;SDS_P2;PMS_P1;PMS_P2;Temp;Humidity;BMP_temperature;BMP_pressure;BME280_temperature;BME280_humidity;BME280_pressure;Samples;Min_cycle;Max_cycle;Signal;HPM_P1;HPM_P2
2022/03/01 00:01:59;;;;;;;9.37;7.70;;;7.60;65.10;;;;;;6056651;23;20425;-82
2022/03/01 00:04:28;;;;;;;8.33;6.80;;;7.50;65.00;;;;;;6057667;23;20432;-86
2022/03/01 00:07:07;;;;;;;9.80;7.40;;;7.50;65.00;;;;;;6091646;23;20410;-89
2022/03/01 00:09:37;;;;;;;10.57;6.60;;;7.40;65.10;;;;;;6056363;23;20413;-83
2022/03/01 00:12:20;;;;;;;9.27;7.37;;;7.30;65.70;;;;;;6051221;23;20421;-86
2022/03/01 00:14:47;;;;;;;13.03;7.60;;;7.20;65.80;;;;;;6046874;23;20473;-85
2022/03/01 00:17:24;;;;;;;8.47;7.57;;;7.20;65.60;;;;;;6049163;23;20498;-85
2022/03/01 00:20:06;;;;;;;10.40;7.53;;;7.20;66.20;;;;;;6071170;23;20433;-86
2022/03/01 00:22:40;;;;;;;11.00;7.13;;;7.20;66.10;;;;;;6068738;23;20751;-84
2022/03/01 00:25:07;;;;;;;8.80;6.53;;;7.30;66.00;;;;;;6071680;23;20430;-86
2022/03/01 00:27:34;;;;;;;10.17;7.87;;;7.20;66.30;;;;;;6046389;23;21022;-82
2022/03/01 00:30:01;;;;;;;8.00;6.60;;;7.20;65.90;;;;;;6075946;23;20414;-85
2022/03/01 00:32:40;;;;;;;10.63;7.77;;;7.30;66.40;;;;;;6084005;23;20386;-85
2022/03/01 00:35:07;;;;;;;8.20;6.93;;;7.10;66.60;;;;;;6063726;23;20465;-86
2022/03/01 00:37:37;;;;;;;9.03;7.77;;;7.10;67.40;;;;;;6086857;23;20505;-87
2022/03/01 00:40:04;;;;;;;9.60;7.70;;;7.10;67.40;;;;;;6087641;23;20427;-87
2022/03/01 00:42:31;;;;;;;10.87;7.60;;;7.00;67.60;;;;;;6087173;23;20402;-88
2022/03/01 00:44:58;;;;;;;10.90;7.60;;;7.10;67.90;;;;;;6087497;23;20425;-88
2022/03/01 00:47:25;;;;;;;10.90;8.30;;;7.00;68.10;;;;;;6085673;23;20425;-83
2022/03/01 00:49:51;;;;;;;9.90;7.60;;;6.80;68.40;;;;;;6080316;23;20414;-85
2022/03/01 00:52:18;;;;;;;9.27;6.83;;;7.00;68.60;;;;;;6049289;23;20924;-83
2022/03/01 00:54:45;;;;;;;8.20;7.10;;;7.00;67.80;;;;;;6056322;23;20445;-84
2022/03/01 00:57:12;;;;;;;11.20;7.87;;;6.90;67.00;;;;;;6090486;23;20410;-88
2022/03/01 00:59:39;;;;;;;8.30;6.60;;;6.90;66.90;;;;;;6083932;23;20516;-88
2022/03/01 01:02:06;;;;;;;8.57;6.97;;;6.70;66.70;;;;;;6080726;23;20413;-84
2022/03/01 01:04:33;;;;;;;8.93;8.03;;;7.00;66.70;;;;;;6075549;23;20452;-84
2022/03/01 01:06:59;;;;;;;11.27;7.90;;;7.10;65.60;;;;;;6066650;23;20401;-84
2022/03/01 01:09:26;;;;;;;8.83;7.43;;;7.00;65.90;;;;;;6067017;23;20413;-86
2022/03/01 01:11:54;;;;;;;8.33;7.27;;;6.80;66.30;;;;;;6068748;23;20422;-84
2022/03/01 01:14:21;;;;;;;8.90;7.43;;;6.90;67.00;;;;;;6069412;23;20775;-85
2022/03/01 01:17:03;;;;;;;11.37;8.00;;;6.80;67.30;;;;;;6046270;23;20783;-85
2022/03/01 01:19:47;;;;;;;9.23;7.40;;;6.70;67.90;;;;;;6065463;23;20408;-85
2022/03/01 01:24:59;;;;;;;11.10;7.70;;;6.60;69.50;;;;;;6068043;23;20426;-86
2022/03/01 01:27:34;;;;;;;10.13;8.00;;;6.90;68.70;;;;;;6070969;23;20956;-85
2022/03/01 01:30:05;;;;;;;9.10;7.30;;;7.00;68.60;;;;;;6057853;23;20529;-85
2022/03/01 01:32:37;;;;;;;11.03;9.10;;;6.90;68.50;;;;;;6057251;23;20629;-82
2022/03/01 01:35:31;;;;;;;10.10;8.70;;;6.80;68.50;;;;;;6032402;23;20476;-83
2022/03/01 01:38:07;;;;;;;10.13;7.23;;;6.80;68.50;;;;;;6032318;23;20796;-82
2022/03/01 01:40:40;;;;;;;9.03;7.43;;;6.90;68.00;;;;;;6038315;23;20413;-82
2022/03/01 01:43:25;;;;;;;10.03;7.87;;;6.80;67.80;;;;;;6036405;23;20481;-85
2022/03/01 01:45:51;;;;;;;9.77;7.23;;;6.80;68.00;;;;;;6071114;23;20434;-84
2022/03/01 01:48:29;;;;;;;8.17;6.67;;;6.70;68.60;;;;;;6068849;23;20450;-84
2022/03/01 01:51:05;;;;;;;7.67;6.87;;;6.70;68.00;;;;;;6046200;23;20487;-85
2022/03/01 01:53:38;;;;;;;9.90;6.77;;;6.60;68.30;;;;;;6069334;23;20777;-84
2022/03/01 01:56:13;;;;;;;9.90;6.70;;;6.50;68.90;;;;;;6034722;23;20441;-83
2022/03/01 01:59:00;;;;;;;8.40;6.83;;;6.30;69.40;;;;;;6055328;23;21057;-82
2022/03/01 02:01:30;;;;;;;9.57;7.20;;;6.50;68.70;;;;;;6030922;23;20512;-84
2022/03/01 02:04:13;;;;;;;8.93;6.87;;;6.50;68.80;;;;;;6053749;23;20457;-84
2022/03/01 02:06:51;;;;;;;9.80;7.43;;;6.40;69.00;;;;;;6045507;23;20421;-82
2022/03/01 02:09:21;;;;;;;9.57;7.30;;;6.40;69.40;;;;;;6041987;23;20428;-84
2022/03/01 02:12:02;;;;;;;11.70;8.20;;;6.40;69.80;;;;;;6042661;23;20414;-83
2022/03/01 02:14:44;;;;;;;8.50;7.40;;;6.40;69.90;;;;;;6070031;23;20516;-80
2022/03/01 02:17:12;;;;;;;9.10;7.90;;;6.40;70.00;;;;;;6052753;23;20433;-83
2022/03/01 02:19:50;;;;;;;13.63;7.13;;;6.40;70.10;;;;;;6048338;23;20413;-82
2022/03/01 02:22:20;;;;;;;9.27;7.00;;;6.30;69.80;;;;;;6044410;23;20425;-84
2022/03/01 02:24:54;;;;;;;9.97;7.83;;;6.30;70.00;;;;;;6046967;23;20500;-81
2022/03/01 02:27:48;;;;;;;8.47;6.90;;;6.20;70.30;;;;;;6067733;23;20988;-82
2022/03/01 02:31:00;;;;;;;;;;;;;;;;;;;;;
2022/03/01 02:34:36;;;;;;;;;;;;;;;;;;;;;
2022/03/01 02:37:40;;;;;;;9.40;7.57;;;6.10;70.80;;;;;;6053618;23;21043;-80
2022/03/01 02:44:26;;;;;;;11.53;7.27;;;6.00;70.80;;;;;;5984123;23;21235;-82
2022/03/01 02:54:40;;;;;;;8.20;6.47;;;5.70;71.50;;;;;;5887173;24;20458;-81
2022/03/01 02:57:35;;;;;;;12.03;6.97;;;6.00;71.10;;;;;;5874042;24;20533;-84
2022/03/01 03:00:15;;;;;;;8.20;7.07;;;5.90;70.60;;;;;;5814245;24;20441;-83
2022/03/01 03:03:27;;;;;;;9.87;7.63;;;5.90;71.50;;;;;;5761217;24;20408;-84
2022/03/01 03:06:44;;;;;;;9.07;6.70;;;5.80;71.60;;;;;;5754148;24;20493;-84
2022/03/01 03:10:35;;;;;;;;;;;;;;;;;;;;;
2022/03/01 03:16:27;;;;;;;7.57;6.77;;;5.80;71.60;;;;;;5733165;24;20807;-83
2022/03/01 03:19:04;;;;;;;8.47;6.20;;;5.70;72.30;;;;;;5918177;24;20456;-84
2022/03/01 03:25:21;;;;;;;9.03;7.33;;;6.10;71.20;;;;;;5945809;24;20416;-83
2022/03/01 03:28:34;;;;;;;11.57;7.23;;;5.90;71.50;;;;;;5922927;24;20497;-85
2022/03/01 03:31:21;;;;;;;8.20;6.00;;;5.70;71.90;;;;;;5945904;24;20482;-85
2022/03/01 03:34:12;;;;;;;;;;;;;;;;;;;;;
2022/03/01 03:37:00;;;;;;;8.33;6.40;;;5.90;71.20;;;;;;5949506;24;20445;-85
2022/03/01 03:40:00;;;;;;;8.00;6.80;;;6.00;70.50;;;;;;5948472;23;20980;-85
2022/03/01 03:42:46;;;;;;;;;;;;;;;;;;;;;
2022/03/01 03:45:32;;;;;;;8.37;6.17;;;5.90;70.90;;;;;;6070309;23;20406;-84
2022/03/01 03:48:16;;;;;;;;;;;;;;;;;;;;;
2022/03/01 03:51:01;;;;;;;8.47;6.40;;;5.90;70.80;;;;;;6064211;23;20417;-83
2022/03/01 03:56:45;;;;;;;13.00;7.80;;;5.90;71.20;;;;;;6060083;23;20469;-84
2022/03/01 03:59:29;;;;;;;9.07;7.40;;;5.80;71.10;;;;;;6038628;23;20448;-83
2022/03/01 04:02:08;;;;;;;7.50;6.73;;;5.90;70.90;;;;;;6038826;23;20421;-81
2022/03/01 04:05:12;;;;;;;;;;;;;;;;;;;;;
2022/03/01 04:08:04;;;;;;;10.33;7.23;;;5.70;71.90;;;;;;6050124;23;20409;-84
2022/03/01 04:11:02;;;;;;;9.33;5.83;;;5.70;72.20;;;;;;6042493;23;20475;-84
2022/03/01 04:17:28;;;;;;;9.57;7.20;;;5.50;72.50;;;;;;6062717;23;20433;-84
2022/03/01 04:24:15;;;;;;;7.50;6.70;;;5.50;72.90;;;;;;6059655;23;20937;-84
2022/03/01 04:28:01;;;;;;;11.07;7.50;;;5.50;72.90;;;;;;5984489;23;20463;-83
2022/03/01 04:31:32;;;;;;;;;;;;;;;;;;;;;
2022/03/01 04:35:08;;;;;;;9.73;7.83;;;5.80;72.10;;;;;;5977560;23;20463;-85
2022/03/01 04:38:30;;;;;;;;;;;;;;;;;;;;;
2022/03/01 04:41:15;;;;;;;8.07;7.13;;;5.40;72.90;;;;;;5979343;24;21200;-84
2022/03/01 04:44:08;;;;;;;9.43;6.57;;;5.30;73.60;;;;;;5895446;24;20465;-85
2022/03/01 04:47:14;;;;;;;8.97;8.00;;;5.40;74.10;;;;;;5890998;24;20403;-83
2022/03/01 04:50:16;;;;;;;;;;;;;;;;;;;;;
2022/03/01 04:53:18;;;;;;;;;;;;;;;;;;;;;
2022/03/01 04:56:38;;;;;;;;;;;;;;;;;;;;;
2022/03/01 05:03:23;;;;;;;9.47;7.40;;;5.40;74.00;;;;;;5900783;24;20432;-85
2022/03/01 05:06:49;;;;;;;11.43;7.60;;;5.50;73.70;;;;;;6053120;23;20482;-84
2022/03/01 05:09:54;;;;;;;10.70;7.90;;;5.50;73.80;;;;;;6111953;23;20438;-84
2022/03/01 05:12:48;;;;;;;10.10;7.80;;;5.50;73.40;;;;;;6093391;23;20420;-83
2022/03/01 05:15:50;;;;;;;;;;;;;;;;;;;;;
2022/03/01 05:18:50;;;;;;;11.73;8.43;;;5.70;73.00;;;;;;6027481;23;20462;-82
2022/03/01 05:29:27;;;;;;;10.33;6.37;;;5.70;73.40;;;;;;6021915;23;20414;-83
2022/03/01 05:32:18;;;;;;;10.97;7.50;;;5.60;72.60;;;;;;5999126;23;20463;-84
2022/03/01 05:38:18;;;;;;;9.30;7.27;;;5.60;72.70;;;;;;5989902;23;20447;-82
2022/03/01 05:41:11;;;;;;;8.83;7.40;;;5.30;73.40;;;;;;6009028;23;20792;-84
2022/03/01 05:44:05;;;;;;;9.63;6.20;;;5.40;73.70;;;;;;6011166;23;20560;-84
2022/03/01 05:46:38;;;;;;;8.43;6.80;;;5.40;73.90;;;;;;6007071;23;20425;-82
2022/03/01 05:49:23;;;;;;;9.57;8.07;;;5.40;74.30;;;;;;6006808;23;20374;-86
2022/03/01 05:55:45;;;;;;;8.40;6.30;;;5.30;74.80;;;;;;6005379;23;21028;-85
2022/03/01 06:01:30;;;;;;;10.03;7.00;;;5.30;74.20;;;;;;6066473;23;20831;-86
2022/03/01 06:04:50;;;;;;;10.83;7.50;;;5.40;74.30;;;;;;6036539;23;20426;-84
2022/03/01 06:08:04;;;;;;;9.43;7.10;;;5.30;74.30;;;;;;6006608;23;20410;-85
2022/03/01 06:11:29;;;;;;;11.40;8.27;;;5.50;74.60;;;;;;6069663;23;20424;-86
2022/03/01 06:14:28;;;;;;;7.87;6.73;;;5.50;74.10;;;;;;5957666;23;20501;-84
2022/03/01 06:17:24;;;;;;;8.03;6.27;;;5.50;74.00;;;;;;6076376;23;20721;-84
2022/03/01 06:20:09;;;;;;;9.17;7.30;;;5.30;74.20;;;;;;6076396;23;20465;-84
2022/03/01 06:23:24;;;;;;;9.63;7.07;;;5.40;74.00;;;;;;6097620;23;20414;-84
2022/03/01 06:26:30;;;;;;;10.97;8.30;;;5.30;74.00;;;;;;6077384;23;20464;-85
2022/03/01 06:29:32;;;;;;;9.80;7.77;;;5.10;74.30;;;;;;6023128;23;20403;-85
2022/03/01 06:36:48;;;;;;;10.67;7.93;;;5.40;75.20;;;;;;6047237;23;20744;-84
2022/03/01 06:40:18;;;;;;;14.13;8.03;;;5.50;74.00;;;;;;6012036;23;21186;-85
2022/03/01 06:43:05;;;;;;;10.37;8.40;;;5.40;73.50;;;;;;6007336;23;20439;-84
2022/03/01 06:46:22;;;;;;;10.50;7.50;;;5.50;73.80;;;;;;5971971;23;20503;-85
2022/03/01 06:49:08;;;;;;;9.50;7.17;;;5.50;73.60;;;;;;5900674;24;20935;-83
2022/03/01 06:52:05;;;;;;;13.10;9.00;;;5.40;73.50;;;;;;5931253;23;20494;-85
2022/03/01 06:55:08;;;;;;;12.97;10.23;;;5.50;73.20;;;;;;5982043;23;20435;-83
2022/03/01 07:00:51;;;;;;;14.20;8.23;;;5.30;73.40;;;;;;6014916;23;20430;-84
2022/03/01 07:07:42;;;;;;;10.87;8.10;;;5.60;72.60;;;;;;5968571;24;20447;-85
2022/03/01 07:14:22;;;;;;;12.03;8.23;;;5.70;71.60;;;;;;5963449;23;20462;-85
2022/03/01 07:17:24;;;;;;;14.10;8.40;;;5.60;71.30;;;;;;5964875;24;20428;-86
2022/03/01 07:20:17;;;;;;;12.23;8.57;;;5.70;71.10;;;;;;5967563;24;20463;-82
2022/03/01 07:23:20;;;;;;;13.93;7.90;;;5.80;71.00;;;;;;6002992;23;20419;-85
2022/03/01 07:26:42;;;;;;;11.67;9.00;;;6.00;70.40;;;;;;6002031;23;20447;-84
2022/03/01 07:30:19;;;;;;;12.83;7.93;;;6.10;69.70;;;;;;5996960;23;20542;-83
2022/03/01 07:41:10;;;;;;;12.00;8.30;;;6.30;68.70;;;;;;5920645;24;20453;-85
2022/03/01 07:55:51;;;;;;;9.40;8.17;;;6.10;67.40;;;;;;5894217;24;20462;-82
2022/03/01 07:58:54;;;;;;;13.63;8.53;;;6.00;68.10;;;;;;5879960;24;20470;-84
2022/03/01 08:01:41;;;;;;;11.13;9.23;;;6.00;68.10;;;;;;5898333;24;20516;-85
2022/03/01 08:05:15;;;;;;;10.40;6.97;;;6.00;68.20;;;;;;5903430;24;20450;-85
2022/03/01 08:08:30;;;;;;;9.30;8.00;;;6.40;67.60;;;;;;5954809;23;20443;-85
2022/03/01 08:11:37;;;;;;;16.57;9.03;;;6.40;67.40;;;;;;5991109;23;20464;-85
2022/03/01 08:14:33;;;;;;;;;;;;;;;;;;;;;
2022/03/01 08:21:42;;;;;;;13.77;9.47;;;7.60;64.60;;;;;;5912121;24;20438;-84
2022/03/01 08:28:22;;;;;;;13.43;8.87;;;6.80;64.10;;;;;;5926683;24;20431;-84
2022/03/01 08:31:44;;;;;;;;;;;;;;;;;;;;;
2022/03/01 08:35:03;;;;;;;11.37;8.33;;;6.60;65.40;;;;;;5901696;24;20526;-84
2022/03/01 08:38:36;;;;;;;10.33;8.07;;;6.70;65.30;;;;;;5852772;24;20475;-85
2022/03/01 08:42:02;;;;;;;13.07;8.23;;;6.90;65.60;;;;;;5923821;24;20541;-85
2022/03/01 08:48:53;;;;;;;9.43;7.07;;;7.20;64.90;;;;;;5846579;24;20450;-85
2022/03/01 08:55:42;;;;;;;;;;;;;;;;;;;;;
2022/03/01 09:01:50;;;;;;;11.43;8.30;;;6.90;64.40;;;;;;5835857;24;20416;-82
2022/03/01 09:04:34;;;;;;;14.17;8.30;;;7.70;63.50;;;;;;5855187;23;20435;-84
2022/03/01 09:07:09;;;;;;;9.80;7.87;;;7.70;62.30;;;;;;6004238;23;20415;-84
2022/03/01 09:09:42;;;;;;;8.90;6.80;;;7.30;62.60;;;;;;6010853;23;20435;-84
2022/03/01 09:12:10;;;;;;;13.23;8.63;;;7.70;62.10;;;;;;6022305;23;20415;-82
2022/03/01 09:17:43;;;;;;;13.70;8.20;;;7.90;61.20;;;;;;6006314;23;20477;-84
2022/03/01 09:20:21;;;;;;;11.93;7.00;;;7.70;60.00;;;;;;5994100;23;20483;-83
2022/03/01 09:23:04;;;;;;;10.70;7.80;;;7.70;59.90;;;;;;5991118;23;20527;-85
2022/03/01 09:25:46;;;;;;;10.40;8.93;;;7.90;59.80;;;;;;5990187;23;20447;-84
2022/03/01 09:28:31;;;;;;;12.40;8.43;;;7.90;59.90;;;;;;5994866;23;20427;-84
2022/03/01 09:31:22;;;;;;;11.63;8.83;;;7.80;59.90;;;;;;5991011;23;20403;-84
2022/03/01 09:34:21;;;;;;;10.90;8.03;;;7.60;60.30;;;;;;6063043;23;20567;-83
2022/03/01 09:37:11;;;;;;;21.23;9.00;;;7.40;61.00;;;;;;6103545;23;20415;-84
2022/03/01 09:40:24;;;;;;;13.00;7.70;;;7.70;60.90;;;;;;6110347;23;20448;-83
2022/03/01 09:46:46;;;;;;;10.40;7.30;;;7.80;60.40;;;;;;6078042;23;20818;-84
2022/03/01 09:49:31;;;;;;;13.47;9.20;;;7.80;59.90;;;;;;6131144;23;20427;-84
2022/03/01 09:52:41;;;;;;;13.50;8.30;;;7.90;59.60;;;;;;6105389;23;20406;-83
2022/03/01 09:55:34;;;;;;;12.57;7.90;;;7.60;60.50;;;;;;6121141;23;20496;-83
2022/03/01 09:58:26;;;;;;;12.77;8.20;;;7.70;61.40;;;;;;6121698;23;20397;-84
2022/03/01 10:04:50;;;;;;;12.47;7.90;;;7.90;60.30;;;;;;6066815;23;20429;-84
2022/03/01 10:07:55;;;;;;;12.80;7.87;;;8.10;59.80;;;;;;6097968;23;20401;-81
2022/03/01 10:11:04;;;;;;;12.20;9.10;;;8.50;59.70;;;;;;6085058;23;20430;-83
2022/03/01 10:13:42;;;;;;;11.23;7.33;;;9.30;58.40;;;;;;6123203;23;20423;-82
2022/03/01 10:16:18;;;;;;;9.53;8.00;;;10.60;55.80;;;;;;6098800;23;20951;-83
2022/03/01 10:19:30;;;;;;;13.40;6.40;;;11.70;52.30;;;;;;6100926;23;20423;-83
2022/03/01 10:22:15;;;;;;;11.43;8.17;;;11.20;51.50;;;;;;6085062;23;20455;-84
2022/03/01 10:25:09;;;;;;;12.47;8.83;;;10.60;52.10;;;;;;6097391;23;20952;-83
2022/03/01 10:28:03;;;;;;;10.13;7.23;;;10.00;54.00;;;;;;6097368;23;20511;-82
2022/03/01 10:31:24;;;;;;;12.90;8.03;;;10.50;53.40;;;;;;6097657;23;20452;-83
2022/03/01 10:34:16;;;;;;;10.93;7.40;;;10.80;52.50;;;;;;6099822;23;20424;-85
2022/03/01 10:36:52;;;;;;;10.50;7.00;;;10.60;50.90;;;;;;6101559;23;20423;-84
2022/03/01 10:39:51;;;;;;;10.80;7.73;;;10.50;51.10;;;;;;6103664;23;20947;-83
2022/03/01 10:42:34;;;;;;;10.63;7.67;;;10.50;51.10;;;;;;6102657;23;20412;-82
2022/03/01 10:45:53;;;;;;;14.27;8.77;;;10.10;50.60;;;;;;6100124;23;20420;-84
2022/03/01 10:48:40;;;;;;;10.90;7.50;;;10.20;51.10;;;;;;6099716;23;20421;-84
2022/03/01 10:51:13;;;;;;;8.97;7.00;;;10.00;50.10;;;;;;6099560;23;20420;-84
2022/03/01 10:54:06;;;;;;;8.60;7.37;;;10.20;49.80;;;;;;6096925;23;20432;-82
2022/03/01 10:56:57;;;;;;;10.37;7.77;;;9.80;51.30;;;;;;6095987;23;20916;-84
2022/03/01 10:59:40;;;;;;;11.13;7.03;;;9.40;52.00;;;;;;6095858;23;20443;-83
2022/03/01 11:08:41;;;;;;;8.50;6.40;;;9.80;51.80;;;;;;6095511;23;20424;-85
2022/03/01 11:19:24;;;;;;;11.13;6.80;;;9.80;51.60;;;;;;6076885;23;20401;-84
2022/03/01 11:22:47;;;;;;;13.17;8.07;;;9.60;52.70;;;;;;6101105;23;20412;-85
2022/03/01 11:26:04;;;;;;;;;;;;;;;;;;;;;
2022/03/01 11:29:04;;;;;;;8.50;6.83;;;10.30;50.20;;;;;;6010643;23;20426;-85
2022/03/01 11:32:28;;;;;;;10.27;7.30;;;10.00;49.70;;;;;;6005775;23;20422;-82
2022/03/01 11:35:33;;;;;;;9.80;6.90;;;10.30;49.80;;;;;;6007634;23;20542;-84
2022/03/01 11:38:33;;;;;;;13.00;7.83;;;10.20;49.50;;;;;;5960958;23;20391;-85
2022/03/01 11:41:26;;;;;;;;;;;;;;;;;;;;;
2022/03/01 11:44:00;;;;;;;11.67;7.03;;;10.30;48.80;;;;;;6019163;23;20468;-83
2022/03/01 11:47:17;;;;;;;9.67;6.53;;;10.60;48.60;;;;;;5997164;23;20499;-84
2022/03/01 11:50:20;;;;;;;11.40;7.53;;;10.60;47.80;;;;;;6003186;23;20414;-84
2022/03/01 11:53:06;;;;;;;13.17;7.17;;;10.70;47.00;;;;;;6021830;23;20475;-83
2022/03/01 11:56:14;;;;;;;11.43;6.70;;;10.70;46.90;;;;;;6036289;23;20450;-83
2022/03/01 11:59:08;;;;;;;9.33;6.80;;;10.60;47.10;;;;;;6106814;23;20392;-84
2022/03/01 12:02:28;;;;;;;6.93;6.20;;;10.30;45.90;;;;;;6113707;23;20425;-84
2022/03/01 12:05:23;;;;;;;10.00;6.93;;;10.30;46.30;;;;;;6125434;23;20451;-81
2022/03/01 12:08:35;;;;;;;9.50;6.60;;;10.30;45.20;;;;;;6110215;23;20417;-83
2022/03/01 12:12:10;;;;;;;9.10;6.47;;;9.90;46.60;;;;;;6080579;23;20503;-84
2022/03/01 12:15:09;;;;;;;;;;;;;;;;;;;;;
2022/03/01 12:18:00;;;;;;;;;;;;;;;;;;;;;
2022/03/01 12:20:59;;;;;;;10.67;7.63;;;10.70;45.50;;;;;;6100998;23;20460;-84
2022/03/01 12:23:56;;;;;;;8.67;6.97;;;10.50;45.70;;;;;;6097072;23;20417;-86
2022/03/01 12:27:09;;;;;;;11.80;7.03;;;10.70;45.70;;;;;;6097090;23;20397;-83
2022/03/01 12:30:23;;;;;;;9.10;6.77;;;10.60;45.80;;;;;;6097037;23;20964;-83
2022/03/01 12:33:23;;;;;;;10.03;6.80;;;10.70;45.30;;;;;;6049013;23;20397;-84
2022/03/01 12:36:03;;;;;;;8.47;6.77;;;10.90;45.90;;;;;;6094558;23;21278;-85
2022/03/01 12:38:59;;;;;;;11.73;8.63;;;10.60;45.80;;;;;;6096901;23;20951;-85
2022/03/01 12:42:02;;;;;;;13.40;7.53;;;10.60;46.50;;;;;;6098917;23;20404;-85
2022/03/01 12:45:09;;;;;;;9.70;7.77;;;10.60;47.50;;;;;;6096717;23;20436;-86
2022/03/01 12:48:08;;;;;;;10.77;7.47;;;11.00;47.70;;;;;;6094916;23;20422;-85
2022/03/01 12:51:10;;;;;;;9.90;7.33;;;11.40;47.30;;;;;;6092436;23;20416;-85
2022/03/01 12:57:13;;;;;;;10.83;7.70;;;11.40;47.20;;;;;;6100402;23;20548;-84
2022/03/01 13:00:16;;;;;;;10.17;7.43;;;11.60;46.50;;;;;;6078334;23;20427;-84
2022/03/01 13:03:22;;;;;;;9.70;7.87;;;11.40;46.40;;;;;;6076320;23;20528;-85
2022/03/01 13:06:31;;;;;;;10.27;7.13;;;11.70;46.70;;;;;;6086563;23;20436;-84
2022/03/01 13:09:34;;;;;;;12.83;9.00;;;12.20;45.20;;;;;;6085921;23;20443;-82
2022/03/01 13:12:16;;;;;;;9.30;6.80;;;12.20;44.20;;;;;;6085591;23;20417;-84
2022/03/01 13:15:47;;;;;;;10.00;8.70;;;12.20;44.40;;;;;;6005188;23;20526;-82
2022/03/01 13:18:40;;;;;;;10.80;7.80;;;12.30;44.10;;;;;;6031465;23;20941;-84
2022/03/01 13:21:44;;;;;;;10.10;7.47;;;11.90;44.40;;;;;;6031754;23;20450;-83
2022/03/01 13:24:42;;;;;;;8.90;6.80;;;12.30;43.70;;;;;;6009281;23;20417;-85
2022/03/01 13:27:23;;;;;;;9.47;7.07;;;12.10;44.00;;;;;;6044241;23;20422;-85
2022/03/01 13:30:09;;;;;;;9.43;7.03;;;11.70;44.80;;;;;;6013457;23;20414;-85
2022/03/01 13:32:50;;;;;;;11.87;7.60;;;11.60;45.70;;;;;;6011664;23;20418;-85
2022/03/01 13:35:29;;;;;;;11.10;7.27;;;11.90;46.30;;;;;;6031932;23;20449;-83
2022/03/01 13:38:08;;;;;;;10.03;7.67;;;12.20;46.20;;;;;;6034188;23;20399;-84
2022/03/01 13:43:41;;;;;;;11.37;7.60;;;12.40;45.20;;;;;;6035709;23;20402;-85
2022/03/01 13:46:32;;;;;;;10.33;7.80;;;12.20;44.80;;;;;;6009248;23;20473;-82
2022/03/01 13:49:36;;;;;;;10.53;7.97;;;12.00;44.50;;;;;;6020766;23;21134;-85
2022/03/01 13:52:31;;;;;;;18.07;8.60;;;11.90;44.70;;;;;;6018621;23;20437;-88
2022/03/01 13:55:41;;;;;;;16.97;8.23;;;11.40;45.80;;;;;;6001687;23;20465;-86
2022/03/01 13:58:46;;;;;;;9.63;7.20;;;11.70;46.50;;;;;;6015040;23;20418;-83
2022/03/01 14:01:49;;;;;;;11.53;8.00;;;12.00;46.40;;;;;;6017155;23;20501;-85
2022/03/01 14:05:25;;;;;;;10.63;8.20;;;12.00;45.80;;;;;;6013861;23;20445;-85
2022/03/01 14:08:21;;;;;;;13.37;8.17;;;11.80;45.70;;;;;;5932507;23;20447;-86
2022/03/01 14:11:15;;;;;;;11.70;8.27;;;11.60;46.50;;;;;;6018156;23;21242;-83
2022/03/01 14:13:51;;;;;;;10.17;8.50;;;11.40;46.60;;;;;;6013150;23;20475;-84
2022/03/01 14:16:43;;;;;;;12.37;8.70;;;11.50;46.10;;;;;;6027796;23;20936;-87
2022/03/01 14:19:30;;;;;;;12.23;8.03;;;11.70;45.80;;;;;;6094172;23;20409;-87
2022/03/01 14:22:12;;;;;;;8.80;7.70;;;11.50;45.70;;;;;;6099202;23;20448;-86
2022/03/01 14:25:09;;;;;;;10.00;7.23;;;11.30;45.80;;;;;;6104267;23;20429;-86
2022/03/01 14:28:24;;;;;;;10.37;6.97;;;11.60;45.60;;;;;;6104909;23;20418;-88
2022/03/01 14:34:23;;;;;;;11.63;8.13;;;11.10;46.00;;;;;;6015114;23;20427;-87
2022/03/01 14:37:36;;;;;;;12.60;7.80;;;11.10;46.80;;;;;;6018927;23;20439;-84
2022/03/01 14:40:42;;;;;;;8.97;5.97;;;11.20;46.50;;;;;;5989322;23;20583;-86
2022/03/01 14:43:22;;;;;;;11.63;7.70;;;11.40;46.40;;;;;;6016527;23;20426;-87
2022/03/01 14:49:21;;;;;;;10.00;6.97;;;11.30;45.90;;;;;;6015390;23;20481;-85
2022/03/01 14:59:04;;;;;;;10.87;7.90;;;11.70;46.40;;;;;;6036045;23;20402;-85
2022/03/01 15:01:39;;;;;;;9.77;7.50;;;11.70;45.50;;;;;;6040965;23;20442;-86
2022/03/01 15:04:34;;;;;;;11.53;8.47;;;11.70;45.60;;;;;;6042811;23;20410;-87
2022/03/01 15:07:36;;;;;;;13.50;7.40;;;11.70;45.80;;;;;;6040588;23;20708;-86
2022/03/01 15:10:36;;;;;;;9.03;7.93;;;11.80;45.70;;;;;;5979005;23;20426;-85
2022/03/01 15:13:09;;;;;;;11.43;8.90;;;11.40;46.50;;;;;;6103042;23;20411;-86
2022/03/01 15:16:05;;;;;;;14.97;10.60;;;11.50;46.20;;;;;;6128838;23;20455;-84
2022/03/01 15:18:58;;;;;;;;;;;;;;;;;;;;;
2022/03/01 15:21:47;;;;;;;10.77;8.53;;;11.40;45.90;;;;;;5990000;24;20447;-86
2022/03/01 15:24:47;;;;;;;10.60;7.63;;;11.10;46.50;;;;;;5983012;23;20432;-84
2022/03/01 15:27:50;;;;;;;10.17;7.57;;;11.20;46.50;;;;;;5978910;24;20408;-85
2022/03/01 15:30:48;;;;;;;10.37;7.77;;;11.30;46.10;;;;;;5955474;24;20905;-85
2022/03/01 15:33:38;;;;;;;10.37;7.77;;;11.50;46.60;;;;;;5979190;24;20476;-86
2022/03/01 15:36:20;;;;;;;12.37;8.40;;;11.30;46.80;;;;;;5959478;24;20465;-86
2022/03/01 15:39:20;;;;;;;9.20;7.40;;;11.40;46.40;;;;;;5978420;24;20423;-85
2022/03/01 15:42:37;;;;;;;9.80;7.33;;;11.10;46.30;;;;;;5978665;24;21294;-87
2022/03/01 15:45:34;;;;;;;13.53;9.13;;;11.30;46.10;;;;;;5895267;24;20448;-82
2022/03/01 15:48:17;;;;;;;9.50;8.50;;;11.40;47.20;;;;;;5893511;24;20492;-86
2022/03/01 15:50:55;;;;;;;11.20;9.23;;;11.30;46.90;;;;;;5896031;24;21435;-85
2022/03/01 15:53:48;;;;;;;11.83;9.20;;;11.20;47.30;;;;;;6001867;23;20806;-86
2022/03/01 15:56:49;;;;;;;12.67;8.50;;;11.00;47.70;;;;;;5987690;23;20527;-87
2022/03/01 15:59:36;;;;;;;11.60;8.67;;;11.20;47.90;;;;;;5987554;23;20507;-84
2022/03/01 16:02:58;;;;;;;;;;;;;;;;;;;;;
2022/03/01 16:05:38;;;;;;;9.67;7.30;;;11.20;48.10;;;;;;6005560;23;20644;-85
2022/03/01 16:08:17;;;;;;;13.47;9.50;;;11.00;48.30;;;;;;5984325;23;20484;-86
2022/03/01 16:10:56;;;;;;;9.10;8.20;;;10.90;48.80;;;;;;5986413;23;20423;-86
2022/03/01 16:14:00;;;;;;;10.40;7.67;;;10.90;49.10;;;;;;5988251;23;20504;-84
2022/03/01 16:16:55;;;;;;;9.97;7.70;;;10.90;49.20;;;;;;5984013;23;20512;-86
2022/03/01 16:19:39;;;;;;;13.20;9.97;;;10.90;48.70;;;;;;5983482;23;20415;-84
2022/03/01 16:22:44;;;;;;;;;;;;;;;;;;;;;
2022/03/01 16:25:45;;;;;;;10.33;8.47;;;10.80;49.10;;;;;;6042938;23;20421;-84
2022/03/01 16:28:50;;;;;;;12.53;8.17;;;10.90;49.60;;;;;;6123230;23;20426;-85
2022/03/01 16:31:40;;;;;;;14.83;8.63;;;10.90;49.70;;;;;;6130060;23;20415;-85
2022/03/01 16:34:30;;;;;;;10.67;8.63;;;10.80;49.70;;;;;;6125027;23;20726;-84
2022/03/01 16:37:13;;;;;;;12.23;9.00;;;10.80;49.60;;;;;;6124785;23;20828;-87
2022/03/01 16:39:47;;;;;;;9.43;7.27;;;10.70;49.30;;;;;;6126713;23;20899;-84
2022/03/01 16:42:36;;;;;;;11.30;7.60;;;10.70;49.50;;;;;;6107949;23;20451;-87
2022/03/01 16:49:10;;;;;;;12.03;8.10;;;10.50;50.70;;;;;;6128140;23;20502;-89
2022/03/01 16:52:21;;;;;;;;;;;;;;;;;;;;;
2022/03/01 16:55:44;;;;;;;9.87;7.60;;;10.60;50.40;;;;;;6090475;23;20425;-87
2022/03/01 16:58:48;;;;;;;10.23;8.77;;;10.60;50.20;;;;;;6082975;23;20460;-86
2022/03/01 17:02:07;;;;;;;12.50;10.30;;;10.50;49.90;;;;;;6131551;23;20931;-85
2022/03/01 17:04:45;;;;;;;10.10;7.03;;;10.50;50.60;;;;;;6137517;23;20503;-88
2022/03/01 17:07:39;;;;;;;11.00;8.10;;;10.50;50.10;;;;;;6103081;23;20407;-85
2022/03/01 17:10:31;;;;;;;11.47;8.80;;;10.40;50.20;;;;;;6072973;23;20407;-85
2022/03/01 17:13:23;;;;;;;13.17;7.60;;;10.30;50.30;;;;;;6123200;23;20399;-83
2022/03/01 17:16:13;;;;;;;11.97;7.77;;;10.40;50.40;;;;;;6127317;23;20442;-84
2022/03/01 17:18:54;;;;;;;12.43;8.17;;;10.50;50.00;;;;;;6129382;23;20386;-86
2022/03/01 17:25:10;;;;;;;11.27;8.40;;;10.40;50.10;;;;;;6133526;23;20428;-87
2022/03/01 17:28:07;;;;;;;12.33;9.00;;;10.30;50.20;;;;;;6134336;23;20412;-86
2022/03/01 17:30:40;;;;;;;12.37;7.50;;;10.20;50.40;;;;;;6135174;23;20954;-85
2022/03/01 17:33:29;;;;;;;11.80;8.97;;;10.20;50.50;;;;;;6129262;23;20423;-84
2022/03/01 17:36:20;;;;;;;10.50;8.00;;;10.20;50.50;;;;;;6078035;23;20438;-85
2022/03/01 17:39:23;;;;;;;13.20;9.50;;;10.20;50.30;;;;;;6103343;23;20404;-85
2022/03/01 17:42:26;;;;;;;9.80;7.73;;;10.10;50.80;;;;;;6128881;23;20451;-84
2022/03/01 17:45:35;;;;;;;10.97;7.87;;;10.10;50.90;;;;;;6129810;23;20430;-85
2022/03/01 17:48:14;;;;;;;9.77;7.37;;;10.20;51.10;;;;;;6107350;23;20735;-86
2022/03/01 17:50:50;;;;;;;10.57;8.77;;;10.20;50.70;;;;;;6131512;23;20450;-84
2022/03/01 17:53:59;;;;;;;14.63;9.67;;;10.10;50.70;;;;;;6130909;23;20451;-86
2022/03/01 17:56:40;;;;;;;10.27;7.80;;;10.20;51.00;;;;;;6129477;23;20414;-83
2022/03/01 17:59:13;;;;;;;8.70;7.70;;;10.10;51.10;;;;;;6129794;23;20427;-84
2022/03/01 18:02:13;;;;;;;12.97;8.63;;;10.20;50.90;;;;;;6130075;23;20481;-84
2022/03/01 18:04:50;;;;;;;9.33;7.43;;;10.10;50.50;;;;;;6141078;23;20718;-85
2022/03/01 18:07:23;;;;;;;8.93;7.67;;;9.90;51.60;;;;;;6139770;23;20448;-85